sensor_id;sensor_type;location;lat;lon;timestamp;temperature;humidity
44190;DHT22;29856;52.144;5.430;2022-11-20T00:01:21;2.20;99.90
44190;DHT22;29856;52.144;5.430;2022-11-20T00:03:46;2.10;99.90
44190;DHT22;29856;52.144;5.430;2022-11-20T00:06:14;2.10;99.90
44190;DHT22;29856;52.144;5.430;2022-11-20T00:08:41;2.50;99.90
44190;DHT22;29856;52.144;5.430;2022-11-20T00:11:08;2.70;99.90
44190;DHT22;29856;52.144;5.430;2022-11-20T00:13:34;3.00;99.90
44190;DHT22;29856;52.144;5.430;2022-11-20T00:16:01;3.30;99.90
44190;DHT22;29856;52.144;5.430;2022-11-20T00:18:27;3.50;99.90
44190;DHT22;29856;52.144;5.430;2022-11-20T00:20:59;3.40;99.90
44190;DHT22;29856;52.144;5.430;2022-11-20T00:23:25;2.70;99.90
44190;DHT22;29856;52.144;5.430;2022-11-20T00:25:50;2.40;99.90
44190;DHT22;29856;52.144;5.430;2022-11-20T00:28:16;2.40;99.90
44190;DHT22;29856;52.144;5.430;2022-11-20T00:30:41;2.00;99.90
44190;DHT22;29856;52.144;5.430;2022-11-20T00:33:06;1.70;99.90
44190;DHT22;29856;52.144;5.430;2022-11-20T00:35:32;1.30;99.90
44190;DHT22;29856;52.144;5.430;2022-11-20T00:37:57;1.30;99.90
44190;DHT22;29856;52.144;5.430;2022-11-20T00:40:23;1.20;99.90
44190;DHT22;29856;52.144;5.430;2022-11-20T00:42:48;1.00;99.90
44190;DHT22;29856;52.144;5.430;2022-11-20T00:45:14;0.70;99.90
44190;DHT22;29856;52.144;5.430;2022-11-20T00:47:39;0.50;99.90
44190;DHT22;29856;52.144;5.430;2022-11-20T00:50:05;0.30;99.90
44190;DHT22;29856;52.144;5.430;2022-11-20T00:52:30;0.20;99.90
44190;DHT22;29856;52.144;5.430;2022-11-20T00:54:56;0.10;99.90
44190;DHT22;29856;52.144;5.430;2022-11-20T00:57:21;0.10;99.90
44190;DHT22;29856;52.144;5.430;2022-11-20T00:59:47;-0.10;99.90
44190;DHT22;29856;52.144;5.430;2022-11-20T01:02:12;-0.10;99.90
44190;DHT22;29856;52.144;5.430;2022-11-20T01:04:38;-0.20;99.90
44190;DHT22;29856;52.144;5.430;2022-11-20T01:07:03;-0.20;99.90
44190;DHT22;29856;52.144;5.430;2022-11-20T01:09:29;-0.10;99.90
44190;DHT22;29856;52.144;5.430;2022-11-20T01:11:54;-0.20;99.90
44190;DHT22;29856;52.144;5.430;2022-11-20T01:14:20;0.10;99.90
44190;DHT22;29856;52.144;5.430;2022-11-20T01:16:48;0.00;99.90
44190;DHT22;29856;52.144;5.430;2022-11-20T01:19:22;-0.10;99.90
44190;DHT22;29856;52.144;5.430;2022-11-20T01:21:52;0.40;99.90
44190;DHT22;29856;52.144;5.430;2022-11-20T01:24:19;1.00;99.90
44190;DHT22;29856;52.144;5.430;2022-11-20T01:26:47;1.50;99.90
44190;DHT22;29856;52.144;5.430;2022-11-20T01:29:16;1.30;99.90
44190;DHT22;29856;52.144;5.430;2022-11-20T01:31:42;0.80;99.90
44190;DHT22;29856;52.144;5.430;2022-11-20T01:34:11;0.80;99.90
44190;DHT22;29856;52.144;5.430;2022-11-20T01:36:37;1.70;99.90
44190;DHT22;29856;52.144;5.430;2022-11-20T01:39:06;1.70;99.90
44190;DHT22;29856;52.144;5.430;2022-11-20T01:41:33;1.90;99.90
44190;DHT22;29856;52.144;5.430;2022-11-20T01:43:59;1.80;99.90
44190;DHT22;29856;52.144;5.430;2022-11-20T01:46:25;1.90;99.90
44190;DHT22;29856;52.144;5.430;2022-11-20T01:48:55;1.80;99.90
44190;DHT22;29856;52.144;5.430;2022-11-20T01:51:42;2.00;99.90
44190;DHT22;29856;52.144;5.430;2022-11-20T01:54:13;2.30;99.90
44190;DHT22;29856;52.144;5.430;2022-11-20T01:56:42;2.40;99.90
44190;DHT22;29856;52.144;5.430;2022-11-20T01:59:10;2.40;99.90
44190;DHT22;29856;52.144;5.430;2022-11-20T02:01:37;2.70;99.90
44190;DHT22;29856;52.144;5.430;2022-11-20T02:04:03;2.20;99.90
44190;DHT22;29856;52.144;5.430;2022-11-20T02:06:49;2.20;99.90
44190;DHT22;29856;52.144;5.430;2022-11-20T02:09:16;2.10;99.90
44190;DHT22;29856;52.144;5.430;2022-11-20T02:11:41;2.40;99.90
44190;DHT22;29856;52.144;5.430;2022-11-20T02:14:07;2.20;99.90
44190;DHT22;29856;52.144;5.430;2022-11-20T02:16:39;1.90;99.90
44190;DHT22;29856;52.144;5.430;2022-11-20T02:19:10;2.20;99.90
44190;DHT22;29856;52.144;5.430;2022-11-20T02:21:43;2.40;99.90
44190;DHT22;29856;52.144;5.430;2022-11-20T02:24:14;2.40;99.90
44190;DHT22;29856;52.144;5.430;2022-11-20T02:26:48;2.80;99.90
44190;DHT22;29856;52.144;5.430;2022-11-20T02:29:17;2.80;99.90
44190;DHT22;29856;52.144;5.430;2022-11-20T02:31:45;2.80;99.90
44190;DHT22;29856;52.144;5.430;2022-11-20T02:34:11;2.80;99.90
44190;DHT22;29856;52.144;5.430;2022-11-20T02:36:39;2.80;99.90
44190;DHT22;29856;52.144;5.430;2022-11-20T02:39:05;2.60;99.90
44190;DHT22;29856;52.144;5.430;2022-11-20T02:41:36;2.40;99.90
44190;DHT22;29856;52.144;5.430;2022-11-20T02:44:02;2.50;99.90
44190;DHT22;29856;52.144;5.430;2022-11-20T02:46:29;2.10;99.90
44190;DHT22;29856;52.144;5.430;2022-11-20T02:48:54;2.10;99.90
44190;DHT22;29856;52.144;5.430;2022-11-20T02:51:20;2.60;99.90
44190;DHT22;29856;52.144;5.430;2022-11-20T02:53:45;2.30;99.90
44190;DHT22;29856;52.144;5.430;2022-11-20T02:56:11;2.30;99.90
44190;DHT22;29856;52.144;5.430;2022-11-20T02:58:37;2.20;99.90
44190;DHT22;29856;52.144;5.430;2022-11-20T03:01:02;2.20;99.90
44190;DHT22;29856;52.144;5.430;2022-11-20T03:03:28;2.50;99.90
44190;DHT22;29856;52.144;5.430;2022-11-20T03:05:53;2.20;99.90
44190;DHT22;29856;52.144;5.430;2022-11-20T03:08:19;1.50;99.90
44190;DHT22;29856;52.144;5.430;2022-11-20T03:10:44;1.10;99.90
44190;DHT22;29856;52.144;5.430;2022-11-20T03:13:10;1.20;99.90
44190;DHT22;29856;52.144;5.430;2022-11-20T03:15:36;1.00;99.90
44190;DHT22;29856;52.144;5.430;2022-11-20T03:18:02;0.70;99.90
44190;DHT22;29856;52.144;5.430;2022-11-20T03:20:27;0.70;99.90
44190;DHT22;29856;52.144;5.430;2022-11-20T03:22:53;1.30;99.90
44190;DHT22;29856;52.144;5.430;2022-11-20T03:25:19;1.50;99.90
44190;DHT22;29856;52.144;5.430;2022-11-20T03:27:44;1.80;99.90
44190;DHT22;29856;52.144;5.430;2022-11-20T03:30:10;2.00;99.90
44190;DHT22;29856;52.144;5.430;2022-11-20T03:32:36;1.90;99.90
44190;DHT22;29856;52.144;5.430;2022-11-20T03:35:01;2.20;99.90
44190;DHT22;29856;52.144;5.430;2022-11-20T03:37:26;2.50;99.90
44190;DHT22;29856;52.144;5.430;2022-11-20T03:39:52;2.50;99.90
44190;DHT22;29856;52.144;5.430;2022-11-20T03:42:17;2.50;99.90
44190;DHT22;29856;52.144;5.430;2022-11-20T03:44:43;2.50;99.90
44190;DHT22;29856;52.144;5.430;2022-11-20T03:47:08;2.40;99.90
44190;DHT22;29856;52.144;5.430;2022-11-20T03:49:34;2.20;99.90
44190;DHT22;29856;52.144;5.430;2022-11-20T03:51:59;2.50;99.90
44190;DHT22;29856;52.144;5.430;2022-11-20T03:54:25;2.10;99.90
44190;DHT22;29856;52.144;5.430;2022-11-20T03:56:50;1.60;99.90
44190;DHT22;29856;52.144;5.430;2022-11-20T03:59:15;1.80;99.90
44190;DHT22;29856;52.144;5.430;2022-11-20T04:01:41;2.10;99.90
44190;DHT22;29856;52.144;5.430;2022-11-20T04:04:06;2.00;99.90
44190;DHT22;29856;52.144;5.430;2022-11-20T04:06:36;2.20;99.90
44190;DHT22;29856;52.144;5.430;2022-11-20T04:09:03;2.30;99.90
44190;DHT22;29856;52.144;5.430;2022-11-20T04:11:33;2.20;99.90
44190;DHT22;29856;52.144;5.430;2022-11-20T04:14:01;1.50;99.90
44190;DHT22;29856;52.144;5.430;2022-11-20T04:16:30;1.00;99.90
44190;DHT22;29856;52.144;5.430;2022-11-20T04:18:58;0.60;99.90
44190;DHT22;29856;52.144;5.430;2022-11-20T04:21:25;0.50;99.90
44190;DHT22;29856;52.144;5.430;2022-11-20T04:23:52;0.70;99.90
44190;DHT22;29856;52.144;5.430;2022-11-20T04:26:18;1.00;99.90
44190;DHT22;29856;52.144;5.430;2022-11-20T04:28:43;0.80;99.90
44190;DHT22;29856;52.144;5.430;2022-11-20T04:31:11;0.40;99.90
44190;DHT22;29856;52.144;5.430;2022-11-20T04:33:37;0.10;99.90
44190;DHT22;29856;52.144;5.430;2022-11-20T04:36:09;0.30;99.90
44190;DHT22;29856;52.144;5.430;2022-11-20T04:38:36;0.90;99.90
44190;DHT22;29856;52.144;5.430;2022-11-20T04:41:03;1.20;99.90
44190;DHT22;29856;52.144;5.430;2022-11-20T04:43:29;1.50;99.90
44190;DHT22;29856;52.144;5.430;2022-11-20T04:45:56;1.60;99.90
44190;DHT22;29856;52.144;5.430;2022-11-20T04:48:22;1.10;99.90
44190;DHT22;29856;52.144;5.430;2022-11-20T04:50:48;0.60;99.90
44190;DHT22;29856;52.144;5.430;2022-11-20T04:53:13;0.20;99.90
44190;DHT22;29856;52.144;5.430;2022-11-20T04:55:39;0.40;99.90
44190;DHT22;29856;52.144;5.430;2022-11-20T04:58:04;0.50;99.90
44190;DHT22;29856;52.144;5.430;2022-11-20T05:00:30;0.70;99.90
44190;DHT22;29856;52.144;5.430;2022-11-20T05:02:55;0.50;99.90
44190;DHT22;29856;52.144;5.430;2022-11-20T05:05:21;0.20;99.90
44190;DHT22;29856;52.144;5.430;2022-11-20T05:07:46;0.50;99.90
44190;DHT22;29856;52.144;5.430;2022-11-20T05:10:12;0.90;99.90
44190;DHT22;29856;52.144;5.430;2022-11-20T05:12:37;1.20;99.90
44190;DHT22;29856;52.144;5.430;2022-11-20T05:15:03;1.50;99.90
44190;DHT22;29856;52.144;5.430;2022-11-20T05:17:28;1.50;99.90
44190;DHT22;29856;52.144;5.430;2022-11-20T05:19:54;0.90;99.90
44190;DHT22;29856;52.144;5.430;2022-11-20T05:22:19;0.40;99.90
44190;DHT22;29856;52.144;5.430;2022-11-20T05:24:45;0.40;99.90
44190;DHT22;29856;52.144;5.430;2022-11-20T05:27:10;0.70;99.90
44190;DHT22;29856;52.144;5.430;2022-11-20T05:29:36;0.20;99.90
44190;DHT22;29856;52.144;5.430;2022-11-20T05:32:01;-0.20;99.90
44190;DHT22;29856;52.144;5.430;2022-11-20T05:34:27;-0.50;99.90
44190;DHT22;29856;52.144;5.430;2022-11-20T05:36:52;-0.70;99.90
44190;DHT22;29856;52.144;5.430;2022-11-20T05:39:17;-0.70;99.90
44190;DHT22;29856;52.144;5.430;2022-11-20T05:41:43;-0.70;99.90
44190;DHT22;29856;52.144;5.430;2022-11-20T05:44:11;-0.80;99.90
44190;DHT22;29856;52.144;5.430;2022-11-20T05:46:37;-0.90;99.90
44190;DHT22;29856;52.144;5.430;2022-11-20T05:49:02;-1.10;99.90
44190;DHT22;29856;52.144;5.430;2022-11-20T05:51:28;-1.20;99.90
44190;DHT22;29856;52.144;5.430;2022-11-20T05:53:55;-1.40;99.90
44190;DHT22;29856;52.144;5.430;2022-11-20T05:56:22;-1.50;99.90
44190;DHT22;29856;52.144;5.430;2022-11-20T05:58:48;-1.60;99.90
44190;DHT22;29856;52.144;5.430;2022-11-20T06:01:15;-1.50;99.90
44190;DHT22;29856;52.144;5.430;2022-11-20T06:03:42;-1.50;99.90
44190;DHT22;29856;52.144;5.430;2022-11-20T06:06:08;-1.30;99.90
44190;DHT22;29856;52.144;5.430;2022-11-20T06:08:34;-1.30;99.90
44190;DHT22;29856;52.144;5.430;2022-11-20T06:11:03;-1.40;99.90
44190;DHT22;29856;52.144;5.430;2022-11-20T06:13:29;-1.60;99.90
44190;DHT22;29856;52.144;5.430;2022-11-20T06:15:54;-1.60;99.90
44190;DHT22;29856;52.144;5.430;2022-11-20T06:18:20;-1.00;99.90
44190;DHT22;29856;52.144;5.430;2022-11-20T06:20:46;-0.20;99.90
44190;DHT22;29856;52.144;5.430;2022-11-20T06:23:12;0.10;99.90
44190;DHT22;29856;52.144;5.430;2022-11-20T06:25:42;0.30;99.90
44190;DHT22;29856;52.144;5.430;2022-11-20T06:28:08;0.40;99.90
44190;DHT22;29856;52.144;5.430;2022-11-20T06:30:34;0.70;99.90
44190;DHT22;29856;52.144;5.430;2022-11-20T06:32:59;0.90;99.90
44190;DHT22;29856;52.144;5.430;2022-11-20T06:35:25;0.90;99.90
44190;DHT22;29856;52.144;5.430;2022-11-20T06:37:50;1.30;99.90
44190;DHT22;29856;52.144;5.430;2022-11-20T06:40:16;1.00;99.90
44190;DHT22;29856;52.144;5.430;2022-11-20T06:42:41;1.30;99.90
44190;DHT22;29856;52.144;5.430;2022-11-20T06:45:08;1.40;99.90
44190;DHT22;29856;52.144;5.430;2022-11-20T06:47:33;0.70;99.90
44190;DHT22;29856;52.144;5.430;2022-11-20T06:49:59;0.60;99.90
44190;DHT22;29856;52.144;5.430;2022-11-20T06:52:24;1.40;99.90
44190;DHT22;29856;52.144;5.430;2022-11-20T06:54:50;1.00;99.90
44190;DHT22;29856;52.144;5.430;2022-11-20T06:57:15;0.40;99.90
44190;DHT22;29856;52.144;5.430;2022-11-20T06:59:41;0.00;99.90
44190;DHT22;29856;52.144;5.430;2022-11-20T07:02:10;0.50;99.90
44190;DHT22;29856;52.144;5.430;2022-11-20T07:04:35;0.10;99.90
44190;DHT22;29856;52.144;5.430;2022-11-20T07:07:01;-0.30;99.90
44190;DHT22;29856;52.144;5.430;2022-11-20T07:09:26;-0.60;99.90
44190;DHT22;29856;52.144;5.430;2022-11-20T07:11:51;-0.80;99.90
44190;DHT22;29856;52.144;5.430;2022-11-20T07:14:17;-1.00;99.90
44190;DHT22;29856;52.144;5.430;2022-11-20T07:16:42;-1.20;99.90
44190;DHT22;29856;52.144;5.430;2022-11-20T07:19:08;-1.40;99.90
44190;DHT22;29856;52.144;5.430;2022-11-20T07:21:33;-1.50;99.90
44190;DHT22;29856;52.144;5.430;2022-11-20T07:23:59;-1.70;99.90
44190;DHT22;29856;52.144;5.430;2022-11-20T07:26:24;-1.80;99.90
44190;DHT22;29856;52.144;5.430;2022-11-20T07:28:49;-1.80;99.90
44190;DHT22;29856;52.144;5.430;2022-11-20T07:31:15;-2.00;99.90
44190;DHT22;29856;52.144;5.430;2022-11-20T07:33:40;-2.10;99.90
44190;DHT22;29856;52.144;5.430;2022-11-20T07:36:06;-2.10;99.90
44190;DHT22;29856;52.144;5.430;2022-11-20T07:38:32;-2.00;99.90
44190;DHT22;29856;52.144;5.430;2022-11-20T07:40:57;-1.30;99.90
44190;DHT22;29856;52.144;5.430;2022-11-20T07:43:23;-1.00;99.90
44190;DHT22;29856;52.144;5.430;2022-11-20T07:45:49;-0.90;99.90
44190;DHT22;29856;52.144;5.430;2022-11-20T07:48:15;-0.70;99.90
44190;DHT22;29856;52.144;5.430;2022-11-20T07:50:40;-0.30;99.90
44190;DHT22;29856;52.144;5.430;2022-11-20T07:53:06;0.10;99.90
44190;DHT22;29856;52.144;5.430;2022-11-20T07:55:32;0.60;99.90
44190;DHT22;29856;52.144;5.430;2022-11-20T07:57:58;0.60;99.90
44190;DHT22;29856;52.144;5.430;2022-11-20T08:00:24;0.60;99.90
44190;DHT22;29856;52.144;5.430;2022-11-20T08:02:49;0.90;99.90
44190;DHT22;29856;52.144;5.430;2022-11-20T08:05:15;1.10;99.90
44190;DHT22;29856;52.144;5.430;2022-11-20T08:07:42;1.20;99.90
44190;DHT22;29856;52.144;5.430;2022-11-20T08:10:10;1.00;99.90
44190;DHT22;29856;52.144;5.430;2022-11-20T08:12:35;0.90;99.90
44190;DHT22;29856;52.144;5.430;2022-11-20T08:15:01;0.90;99.90
44190;DHT22;29856;52.144;5.430;2022-11-20T08:17:26;1.10;99.90
44190;DHT22;29856;52.144;5.430;2022-11-20T08:19:52;1.00;99.90
44190;DHT22;29856;52.144;5.430;2022-11-20T08:22:18;1.20;99.90
44190;DHT22;29856;52.144;5.430;2022-11-20T08:24:43;1.40;99.90
44190;DHT22;29856;52.144;5.430;2022-11-20T08:27:08;1.70;99.90
44190;DHT22;29856;52.144;5.430;2022-11-20T08:29:34;1.50;99.90
44190;DHT22;29856;52.144;5.430;2022-11-20T08:31:59;1.30;99.90
44190;DHT22;29856;52.144;5.430;2022-11-20T08:34:25;1.30;99.90
44190;DHT22;29856;52.144;5.430;2022-11-20T08:36:50;1.40;99.90
44190;DHT22;29856;52.144;5.430;2022-11-20T08:39:16;1.50;99.90
44190;DHT22;29856;52.144;5.430;2022-11-20T08:41:41;1.80;99.90
44190;DHT22;29856;52.144;5.430;2022-11-20T08:44:07;1.30;99.90
44190;DHT22;29856;52.144;5.430;2022-11-20T08:46:41;1.40;99.90
44190;DHT22;29856;52.144;5.430;2022-11-20T08:49:11;1.30;99.90
44190;DHT22;29856;52.144;5.430;2022-11-20T08:51:37;1.30;99.90
44190;DHT22;29856;52.144;5.430;2022-11-20T08:54:04;1.40;99.90
44190;DHT22;29856;52.144;5.430;2022-11-20T08:56:30;1.60;99.90
44190;DHT22;29856;52.144;5.430;2022-11-20T08:58:56;1.60;99.90
44190;DHT22;29856;52.144;5.430;2022-11-20T09:01:22;1.90;99.90
44190;DHT22;29856;52.144;5.430;2022-11-20T09:03:48;2.00;99.90
44190;DHT22;29856;52.144;5.430;2022-11-20T09:06:14;1.90;99.90
44190;DHT22;29856;52.144;5.430;2022-11-20T09:08:40;2.00;99.90
44190;DHT22;29856;52.144;5.430;2022-11-20T09:11:05;2.10;99.90
44190;DHT22;29856;52.144;5.430;2022-11-20T09:13:32;2.10;99.90
44190;DHT22;29856;52.144;5.430;2022-11-20T09:16:01;2.00;99.90
44190;DHT22;29856;52.144;5.430;2022-11-20T09:18:28;2.10;99.90
44190;DHT22;29856;52.144;5.430;2022-11-20T09:20:59;2.10;99.90
44190;DHT22;29856;52.144;5.430;2022-11-20T09:23:26;2.00;99.90
44190;DHT22;29856;52.144;5.430;2022-11-20T09:25:51;2.10;99.90
44190;DHT22;29856;52.144;5.430;2022-11-20T09:28:17;2.00;99.90
44190;DHT22;29856;52.144;5.430;2022-11-20T09:30:42;2.00;99.90
44190;DHT22;29856;52.144;5.430;2022-11-20T09:33:08;2.10;99.90
44190;DHT22;29856;52.144;5.430;2022-11-20T09:35:33;2.50;99.90
44190;DHT22;29856;52.144;5.430;2022-11-20T09:38:04;2.70;99.90
44190;DHT22;29856;52.144;5.430;2022-11-20T09:40:30;2.60;99.90
44190;DHT22;29856;52.144;5.430;2022-11-20T09:43:19;2.50;99.90
44190;DHT22;29856;52.144;5.430;2022-11-20T09:46:14;2.40;99.90
44190;DHT22;29856;52.144;5.430;2022-11-20T09:51:21;2.50;99.90
44190;DHT22;29856;52.144;5.430;2022-11-20T09:54:06;2.40;99.90
44190;DHT22;29856;52.144;5.430;2022-11-20T09:56:40;2.30;99.90
44190;DHT22;29856;52.144;5.430;2022-11-20T09:59:12;2.30;99.90
44190;DHT22;29856;52.144;5.430;2022-11-20T10:01:39;2.40;99.90
44190;DHT22;29856;52.144;5.430;2022-11-20T10:07:24;2.70;99.90
44190;DHT22;29856;52.144;5.430;2022-11-20T10:09:51;2.90;99.90
44190;DHT22;29856;52.144;5.430;2022-11-20T10:15:12;2.80;99.90
44190;DHT22;29856;52.144;5.430;2022-11-20T10:18:08;2.90;99.90
44190;DHT22;29856;52.144;5.430;2022-11-20T10:26:29;3.00;99.90
44190;DHT22;29856;52.144;5.430;2022-11-20T10:29:13;3.20;99.90
44190;DHT22;29856;52.144;5.430;2022-11-20T10:31:44;3.20;99.90
44190;DHT22;29856;52.144;5.430;2022-11-20T10:36:50;2.90;99.90
44190;DHT22;29856;52.144;5.430;2022-11-20T10:39:25;2.90;99.90
44190;DHT22;29856;52.144;5.430;2022-11-20T10:41:55;2.90;99.90
44190;DHT22;29856;52.144;5.430;2022-11-20T10:44:26;2.90;99.90
44190;DHT22;29856;52.144;5.430;2022-11-20T10:46:52;2.90;99.90
44190;DHT22;29856;52.144;5.430;2022-11-20T10:49:19;2.80;99.90
44190;DHT22;29856;52.144;5.430;2022-11-20T10:54:40;2.80;99.90
44190;DHT22;29856;52.144;5.430;2022-11-20T10:57:22;2.80;99.90
44190;DHT22;29856;52.144;5.430;2022-11-20T11:00:00;2.80;99.90
44190;DHT22;29856;52.144;5.430;2022-11-20T11:04:58;2.80;99.90
44190;DHT22;29856;52.144;5.430;2022-11-20T11:07:40;2.80;99.90
44190;DHT22;29856;52.144;5.430;2022-11-20T11:10:28;2.90;99.90
44190;DHT22;29856;52.144;5.430;2022-11-20T11:12:58;2.80;99.90
44190;DHT22;29856;52.144;5.430;2022-11-20T11:15:40;2.90;99.90
44190;DHT22;29856;52.144;5.430;2022-11-20T11:18:10;2.90;99.90
44190;DHT22;29856;52.144;5.430;2022-11-20T11:20:36;2.80;99.90
44190;DHT22;29856;52.144;5.430;2022-11-20T11:23:02;2.90;99.90
44190;DHT22;29856;52.144;5.430;2022-11-20T11:25:29;2.90;99.90
44190;DHT22;29856;52.144;5.430;2022-11-20T11:27:58;2.90;99.90
44190;DHT22;29856;52.144;5.430;2022-11-20T11:30:25;2.90;99.90
44190;DHT22;29856;52.144;5.430;2022-11-20T11:33:01;2.90;99.90
44190;DHT22;29856;52.144;5.430;2022-11-20T11:35:28;2.90;99.90
44190;DHT22;29856;52.144;5.430;2022-11-20T11:38:02;2.90;99.90
44190;DHT22;29856;52.144;5.430;2022-11-20T11:40:32;2.90;99.90
44190;DHT22;29856;52.144;5.430;2022-11-20T11:43:06;3.00;99.90
44190;DHT22;29856;52.144;5.430;2022-11-20T11:45:32;3.00;99.90
44190;DHT22;29856;52.144;5.430;2022-11-20T11:48:00;3.00;99.90
44190;DHT22;29856;52.144;5.430;2022-11-20T11:50:28;3.00;99.90
44190;DHT22;29856;52.144;5.430;2022-11-20T11:53:14;3.00;99.90
44190;DHT22;29856;52.144;5.430;2022-11-20T11:55:47;3.10;99.90
44190;DHT22;29856;52.144;5.430;2022-11-20T11:58:33;3.10;99.90
44190;DHT22;29856;52.144;5.430;2022-11-20T12:01:36;3.00;99.90
44190;DHT22;29856;52.144;5.430;2022-11-20T12:07:19;3.00;99.90
44190;DHT22;29856;52.144;5.430;2022-11-20T12:09:49;3.30;99.90
44190;DHT22;29856;52.144;5.430;2022-11-20T12:13:13;3.40;99.90
44190;DHT22;29856;52.144;5.430;2022-11-20T12:15:27;3.50;99.90
44190;DHT22;29856;52.144;5.430;2022-11-20T12:17:53;3.50;99.90
44190;DHT22;29856;52.144;5.430;2022-11-20T12:20:22;3.50;99.90
44190;DHT22;29856;52.144;5.430;2022-11-20T12:23:21;3.60;99.90
44190;DHT22;29856;52.144;5.430;2022-11-20T12:25:54;3.70;99.90
44190;DHT22;29856;52.144;5.430;2022-11-20T12:28:46;3.70;99.90
44190;DHT22;29856;52.144;5.430;2022-11-20T12:34:29;3.80;99.90
44190;DHT22;29856;52.144;5.430;2022-11-20T12:37:09;3.80;99.90
44190;DHT22;29856;52.144;5.430;2022-11-20T12:39:50;3.90;99.90
44190;DHT22;29856;52.144;5.430;2022-11-20T12:42:30;3.90;99.90
44190;DHT22;29856;52.144;5.430;2022-11-20T12:45:27;3.90;99.90
44190;DHT22;29856;52.144;5.430;2022-11-20T12:51:30;3.90;99.90
44190;DHT22;29856;52.144;5.430;2022-11-20T12:57:33;3.80;99.90
44190;DHT22;29856;52.144;5.430;2022-11-20T13:00:11;3.80;99.90
44190;DHT22;29856;52.144;5.430;2022-11-20T13:08:23;3.80;99.90
44190;DHT22;29856;52.144;5.430;2022-11-20T13:10:51;3.70;99.90
44190;DHT22;29856;52.144;5.430;2022-11-20T13:16:08;3.70;99.90
44190;DHT22;29856;52.144;5.430;2022-11-20T13:18:40;3.80;99.90
44190;DHT22;29856;52.144;5.430;2022-11-20T13:21:20;3.80;99.90
44190;DHT22;29856;52.144;5.430;2022-11-20T13:23:46;3.80;99.90
44190;DHT22;29856;52.144;5.430;2022-11-20T13:26:21;3.80;99.90
44190;DHT22;29856;52.144;5.430;2022-11-20T13:29:09;3.80;99.90
44190;DHT22;29856;52.144;5.430;2022-11-20T13:31:36;3.80;99.90
44190;DHT22;29856;52.144;5.430;2022-11-20T13:34:06;3.80;99.90
44190;DHT22;29856;52.144;5.430;2022-11-20T13:36:32;3.80;99.90
44190;DHT22;29856;52.144;5.430;2022-11-20T13:38:58;3.80;99.90
44190;DHT22;29856;52.144;5.430;2022-11-20T13:43:58;3.90;99.90
44190;DHT22;29856;52.144;5.430;2022-11-20T13:46:39;3.90;99.90
44190;DHT22;29856;52.144;5.430;2022-11-20T13:49:23;3.90;99.90
44190;DHT22;29856;52.144;5.430;2022-11-20T13:51:51;3.90;99.90
44190;DHT22;29856;52.144;5.430;2022-11-20T14:00:19;3.90;99.90
44190;DHT22;29856;52.144;5.430;2022-11-20T14:05:35;4.00;99.90
44190;DHT22;29856;52.144;5.430;2022-11-20T14:08:03;4.10;99.90
44190;DHT22;29856;52.144;5.430;2022-11-20T14:10:30;4.20;99.90
44190;DHT22;29856;52.144;5.430;2022-11-20T14:12:55;4.30;99.90
44190;DHT22;29856;52.144;5.430;2022-11-20T14:15:32;4.30;99.90
44190;DHT22;29856;52.144;5.430;2022-11-20T14:17:59;4.30;99.90
44190;DHT22;29856;52.144;5.430;2022-11-20T14:20:29;4.20;99.90
44190;DHT22;29856;52.144;5.430;2022-11-20T14:22:55;4.10;99.90
44190;DHT22;29856;52.144;5.430;2022-11-20T14:25:25;4.10;99.90
44190;DHT22;29856;52.144;5.430;2022-11-20T14:27:56;4.10;99.90
44190;DHT22;29856;52.144;5.430;2022-11-20T14:30:24;3.90;99.90
44190;DHT22;29856;52.144;5.430;2022-11-20T14:32:51;3.80;99.90
44190;DHT22;29856;52.144;5.430;2022-11-20T14:35:25;4.00;99.90
44190;DHT22;29856;52.144;5.430;2022-11-20T14:37:52;4.10;99.90
44190;DHT22;29856;52.144;5.430;2022-11-20T14:40:36;4.20;99.90
44190;DHT22;29856;52.144;5.430;2022-11-20T14:43:24;4.20;99.90
44190;DHT22;29856;52.144;5.430;2022-11-20T14:45:57;4.10;99.90
44190;DHT22;29856;52.144;5.430;2022-11-20T14:51:12;3.90;99.90
44190;DHT22;29856;52.144;5.430;2022-11-20T14:53:47;4.10;99.90
44190;DHT22;29856;52.144;5.430;2022-11-20T14:56:21;4.10;99.90
44190;DHT22;29856;52.144;5.430;2022-11-20T14:58:58;4.20;99.90
44190;DHT22;29856;52.144;5.430;2022-11-20T15:01:28;4.10;99.90
44190;DHT22;29856;52.144;5.430;2022-11-20T15:04:20;4.10;99.90
44190;DHT22;29856;52.144;5.430;2022-11-20T15:06:51;4.20;99.90
44190;DHT22;29856;52.144;5.430;2022-11-20T15:09:17;4.30;99.90
44190;DHT22;29856;52.144;5.430;2022-11-20T15:11:53;4.40;99.90
44190;DHT22;29856;52.144;5.430;2022-11-20T15:14:19;4.40;99.90
44190;DHT22;29856;52.144;5.430;2022-11-20T15:16:45;4.60;99.90
44190;DHT22;29856;52.144;5.430;2022-11-20T15:19:31;4.60;99.90
44190;DHT22;29856;52.144;5.430;2022-11-20T15:21:56;4.60;99.90
44190;DHT22;29856;52.144;5.430;2022-11-20T15:24:22;4.50;99.90
44190;DHT22;29856;52.144;5.430;2022-11-20T15:26:47;4.50;99.90
44190;DHT22;29856;52.144;5.430;2022-11-20T15:29:15;4.50;99.90
44190;DHT22;29856;52.144;5.430;2022-11-20T15:31:40;4.50;99.90
44190;DHT22;29856;52.144;5.430;2022-11-20T15:34:11;4.50;99.90
44190;DHT22;29856;52.144;5.430;2022-11-20T15:36:38;4.50;99.90
44190;DHT22;29856;52.144;5.430;2022-11-20T15:39:03;4.60;99.90
44190;DHT22;29856;52.144;5.430;2022-11-20T15:41:29;4.60;99.90
44190;DHT22;29856;52.144;5.430;2022-11-20T15:43:54;4.60;99.90
44190;DHT22;29856;52.144;5.430;2022-11-20T15:46:25;4.50;99.90
44190;DHT22;29856;52.144;5.430;2022-11-20T15:48:54;4.60;99.90
44190;DHT22;29856;52.144;5.430;2022-11-20T15:51:37;4.60;99.90
44190;DHT22;29856;52.144;5.430;2022-11-20T15:54:11;4.50;99.90
44190;DHT22;29856;52.144;5.430;2022-11-20T15:56:37;4.40;99.90
44190;DHT22;29856;52.144;5.430;2022-11-20T15:59:02;4.30;99.90
44190;DHT22;29856;52.144;5.430;2022-11-20T16:01:28;4.20;99.90
44190;DHT22;29856;52.144;5.430;2022-11-20T16:03:53;4.00;99.90
44190;DHT22;29856;52.144;5.430;2022-11-20T16:06:19;3.90;99.90
44190;DHT22;29856;52.144;5.430;2022-11-20T16:08:44;3.80;99.90
44190;DHT22;29856;52.144;5.430;2022-11-20T16:11:14;3.80;99.90
44190;DHT22;29856;52.144;5.430;2022-11-20T16:13:40;3.70;99.90
44190;DHT22;29856;52.144;5.430;2022-11-20T16:16:13;3.70;99.90
44190;DHT22;29856;52.144;5.430;2022-11-20T16:18:39;3.80;99.90
44190;DHT22;29856;52.144;5.430;2022-11-20T16:21:04;3.80;99.90
44190;DHT22;29856;52.144;5.430;2022-11-20T16:23:29;3.80;99.90
44190;DHT22;29856;52.144;5.430;2022-11-20T16:25:55;3.70;99.90
44190;DHT22;29856;52.144;5.430;2022-11-20T16:28:20;3.70;99.90
44190;DHT22;29856;52.144;5.430;2022-11-20T16:30:46;3.70;99.90
44190;DHT22;29856;52.144;5.430;2022-11-20T16:33:14;3.70;99.90
44190;DHT22;29856;52.144;5.430;2022-11-20T16:35:40;3.60;99.90
44190;DHT22;29856;52.144;5.430;2022-11-20T16:38:06;3.70;99.90
44190;DHT22;29856;52.144;5.430;2022-11-20T16:40:31;3.60;99.90
44190;DHT22;29856;52.144;5.430;2022-11-20T16:42:57;3.60;99.90
44190;DHT22;29856;52.144;5.430;2022-11-20T16:45:22;3.60;99.90
44190;DHT22;29856;52.144;5.430;2022-11-20T16:47:48;3.60;99.90
44190;DHT22;29856;52.144;5.430;2022-11-20T16:50:13;3.60;99.90
44190;DHT22;29856;52.144;5.430;2022-11-20T16:52:39;3.60;99.90